sensor_id;sensor_type;location;lat;lon;timestamp;temperature;humidity
22235;DHT22;11286;45.596;5.284;2023-02-21T00:30:20;8.00;99.90
22235;DHT22;11286;45.596;5.284;2023-02-21T00:35:39;8.10;99.90
22235;DHT22;11286;45.596;5.284;2023-02-21T00:38:21;7.70;99.90
22235;DHT22;11286;45.596;5.284;2023-02-21T00:41:05;8.40;99.90
22235;DHT22;11286;45.596;5.284;2023-02-21T00:43:50;8.20;99.90
22235;DHT22;11286;45.596;5.284;2023-02-21T00:46:34;8.40;99.90
22235;DHT22;11286;45.596;5.284;2023-02-21T00:49:18;7.70;99.90
22235;DHT22;11286;45.596;5.284;2023-02-21T00:52:03;7.90;99.90
22235;DHT22;11286;45.596;5.284;2023-02-21T00:54:48;7.60;99.90
22235;DHT22;11286;45.596;5.284;2023-02-21T01:00:14;7.10;99.90
22235;DHT22;11286;45.596;5.284;2023-02-21T01:02:59;7.20;99.90
22235;DHT22;11286;45.596;5.284;2023-02-21T02:00:09;6.30;99.90
22235;DHT22;11286;45.596;5.284;2023-02-21T02:02:56;6.30;99.90
22235;DHT22;11286;45.596;5.284;2023-02-21T02:08:17;6.40;99.90
22235;DHT22;11286;45.596;5.284;2023-02-21T02:14:47;6.80;99.90
22235;DHT22;11286;45.596;5.284;2023-02-21T02:25:59;6.80;99.90
22235;DHT22;11286;45.596;5.284;2023-02-21T02:31:33;6.30;99.90
22235;DHT22;11286;45.596;5.284;2023-02-21T02:37:54;6.30;99.90
22235;DHT22;11286;45.596;5.284;2023-02-21T02:40:34;6.90;99.90
22235;DHT22;11286;45.596;5.284;2023-02-21T02:43:21;6.70;99.90
22235;DHT22;11286;45.596;5.284;2023-02-21T02:46:20;6.50;99.90
22235;DHT22;11286;45.596;5.284;2023-02-21T02:48:52;6.60;99.90
22235;DHT22;11286;45.596;5.284;2023-02-21T02:51:20;6.10;99.90
22235;DHT22;11286;45.596;5.284;2023-02-21T02:53:46;6.20;99.90
22235;DHT22;11286;45.596;5.284;2023-02-21T02:56:14;6.40;99.90
22235;DHT22;11286;45.596;5.284;2023-02-21T02:58:46;5.90;99.90
22235;DHT22;11286;45.596;5.284;2023-02-21T03:04:28;6.30;99.90
22235;DHT22;11286;45.596;5.284;2023-02-21T04:06:59;6.00;99.90
22235;DHT22;11286;45.596;5.284;2023-02-21T04:09:25;6.70;99.90
22235;DHT22;11286;45.596;5.284;2023-02-21T04:11:51;6.20;99.90
22235;DHT22;11286;45.596;5.284;2023-02-21T04:14:17;5.90;99.90
22235;DHT22;11286;45.596;5.284;2023-02-21T04:16:43;6.30;99.90
22235;DHT22;11286;45.596;5.284;2023-02-21T04:19:08;6.40;99.90
22235;DHT22;11286;45.596;5.284;2023-02-21T04:21:35;5.90;99.90
22235;DHT22;11286;45.596;5.284;2023-02-21T04:24:01;5.80;99.90
22235;DHT22;11286;45.596;5.284;2023-02-21T04:26:27;5.80;99.90
22235;DHT22;11286;45.596;5.284;2023-02-21T04:31:27;5.80;99.90
22235;DHT22;11286;45.596;5.284;2023-02-21T04:33:53;5.80;99.90
22235;DHT22;11286;45.596;5.284;2023-02-21T04:36:19;6.20;99.90
22235;DHT22;11286;45.596;5.284;2023-02-21T04:38:46;6.00;99.90
22235;DHT22;11286;45.596;5.284;2023-02-21T04:43:48;5.90;99.90
22235;DHT22;11286;45.596;5.284;2023-02-21T04:46:15;6.10;99.90
22235;DHT22;11286;45.596;5.284;2023-02-21T04:51:21;5.90;99.90
22235;DHT22;11286;45.596;5.284;2023-02-21T04:53:48;5.90;99.90
22235;DHT22;11286;45.596;5.284;2023-02-21T04:56:16;5.60;99.90
22235;DHT22;11286;45.596;5.284;2023-02-21T04:58:42;5.90;99.90
22235;DHT22;11286;45.596;5.284;2023-02-21T05:01:10;5.90;99.90
22235;DHT22;11286;45.596;5.284;2023-02-21T05:03:36;6.00;99.90
22235;DHT22;11286;45.596;5.284;2023-02-21T05:06:02;5.80;99.90
22235;DHT22;11286;45.596;5.284;2023-02-21T05:11:06;5.60;99.90
22235;DHT22;11286;45.596;5.284;2023-02-21T05:13:33;5.60;99.90
22235;DHT22;11286;45.596;5.284;2023-02-21T05:18:32;5.50;99.90
22235;DHT22;11286;45.596;5.284;2023-02-21T05:20:59;5.10;99.90
22235;DHT22;11286;45.596;5.284;2023-02-21T05:28:38;5.40;99.90
22235;DHT22;11286;45.596;5.284;2023-02-21T05:31:05;5.00;99.90
22235;DHT22;11286;45.596;5.284;2023-02-21T05:33:30;6.00;99.90
22235;DHT22;11286;45.596;5.284;2023-02-21T05:35:57;5.80;99.90
22235;DHT22;11286;45.596;5.284;2023-02-21T05:38:24;5.40;99.90
22235;DHT22;11286;45.596;5.284;2023-02-21T05:40:51;5.40;99.90
22235;DHT22;11286;45.596;5.284;2023-02-21T05:43:17;5.90;99.90
22235;DHT22;11286;45.596;5.284;2023-02-21T05:53:37;5.40;99.90
22235;DHT22;11286;45.596;5.284;2023-02-21T05:56:03;5.50;99.90
22235;DHT22;11286;45.596;5.284;2023-02-21T05:58:29;5.10;99.90
22235;DHT22;11286;45.596;5.284;2023-02-21T06:00:55;5.30;99.90
22235;DHT22;11286;45.596;5.284;2023-02-21T06:03:20;5.30;99.90
22235;DHT22;11286;45.596;5.284;2023-02-21T06:05:46;5.30;99.90
22235;DHT22;11286;45.596;5.284;2023-02-21T06:39:30;5.60;99.90
22235;DHT22;11286;45.596;5.284;2023-02-21T06:41:55;5.60;99.90
22235;DHT22;11286;45.596;5.284;2023-02-21T06:44:21;5.60;99.90
22235;DHT22;11286;45.596;5.284;2023-02-21T06:46:47;5.90;99.90
22235;DHT22;11286;45.596;5.284;2023-02-21T06:49:15;5.60;99.90
22235;DHT22;11286;45.596;5.284;2023-02-21T06:51:41;5.90;99.90
22235;DHT22;11286;45.596;5.284;2023-02-21T06:54:08;5.60;99.90
22235;DHT22;11286;45.596;5.284;2023-02-21T06:56:34;5.80;99.90
22235;DHT22;11286;45.596;5.284;2023-02-21T06:59:00;5.60;99.90
22235;DHT22;11286;45.596;5.284;2023-02-21T07:01:27;5.50;99.90
22235;DHT22;11286;45.596;5.284;2023-02-21T07:03:54;5.60;99.90
22235;DHT22;11286;45.596;5.284;2023-02-21T07:06:20;5.70;99.90
22235;DHT22;11286;45.596;5.284;2023-02-21T07:08:46;6.10;99.90
22235;DHT22;11286;45.596;5.284;2023-02-21T07:11:12;5.10;99.90
22235;DHT22;11286;45.596;5.284;2023-02-21T07:13:39;5.00;99.90
22235;DHT22;11286;45.596;5.284;2023-02-21T07:16:05;5.80;99.90
22235;DHT22;11286;45.596;5.284;2023-02-21T07:18:31;5.70;99.90
22235;DHT22;11286;45.596;5.284;2023-02-21T07:20:58;5.80;99.90
22235;DHT22;11286;45.596;5.284;2023-02-21T07:23:24;6.10;99.90
22235;DHT22;11286;45.596;5.284;2023-02-21T07:25:50;6.20;99.90
22235;DHT22;11286;45.596;5.284;2023-02-21T07:28:17;6.40;99.90
22235;DHT22;11286;45.596;5.284;2023-02-21T07:30:43;6.50;99.90
22235;DHT22;11286;45.596;5.284;2023-02-21T07:33:08;6.50;99.90
22235;DHT22;11286;45.596;5.284;2023-02-21T07:35:34;6.90;99.90
22235;DHT22;11286;45.596;5.284;2023-02-21T07:38:00;6.70;99.90
22235;DHT22;11286;45.596;5.284;2023-02-21T07:40:26;6.40;99.90
22235;DHT22;11286;45.596;5.284;2023-02-21T07:42:52;6.50;99.90
22235;DHT22;11286;45.596;5.284;2023-02-21T07:45:17;6.50;99.90
22235;DHT22;11286;45.596;5.284;2023-02-21T07:47:46;6.90;99.90
22235;DHT22;11286;45.596;5.284;2023-02-21T07:50:14;7.10;99.90
22235;DHT22;11286;45.596;5.284;2023-02-21T07:52:40;7.40;99.90
22235;DHT22;11286;45.596;5.284;2023-02-21T07:55:06;7.50;99.90
22235;DHT22;11286;45.596;5.284;2023-02-21T07:57:32;7.40;99.90
22235;DHT22;11286;45.596;5.284;2023-02-21T07:59:57;7.40;99.90
22235;DHT22;11286;45.596;5.284;2023-02-21T08:02:23;7.60;99.90
22235;DHT22;11286;45.596;5.284;2023-02-21T08:04:52;7.70;99.90
22235;DHT22;11286;45.596;5.284;2023-02-21T08:07:18;7.90;99.90
22235;DHT22;11286;45.596;5.284;2023-02-21T08:09:44;8.10;99.90
22235;DHT22;11286;45.596;5.284;2023-02-21T08:12:09;8.20;99.90
22235;DHT22;11286;45.596;5.284;2023-02-21T08:14:35;8.30;99.90
22235;DHT22;11286;45.596;5.284;2023-02-21T08:17:00;8.30;99.90
22235;DHT22;11286;45.596;5.284;2023-02-21T08:19:26;8.60;99.90
22235;DHT22;11286;45.596;5.284;2023-02-21T08:21:52;8.80;99.90
22235;DHT22;11286;45.596;5.284;2023-02-21T08:24:18;9.00;99.90
22235;DHT22;11286;45.596;5.284;2023-02-21T08:26:44;9.10;99.90
22235;DHT22;11286;45.596;5.284;2023-02-21T08:29:13;9.20;99.90
22235;DHT22;11286;45.596;5.284;2023-02-21T08:31:40;9.70;99.90
22235;DHT22;11286;45.596;5.284;2023-02-21T08:34:07;10.10;99.90
22235;DHT22;11286;45.596;5.284;2023-02-21T08:36:35;10.60;99.90
22235;DHT22;11286;45.596;5.284;2023-02-21T08:39:01;13.10;99.90
22235;DHT22;11286;45.596;5.284;2023-02-21T08:41:39;15.00;99.90
22235;DHT22;11286;45.596;5.284;2023-02-21T08:44:05;16.10;99.90
22235;DHT22;11286;45.596;5.284;2023-02-21T08:46:32;16.70;99.90
22235;DHT22;11286;45.596;5.284;2023-02-21T08:48:57;17.30;99.90
22235;DHT22;11286;45.596;5.284;2023-02-21T08:51:27;17.50;99.90
22235;DHT22;11286;45.596;5.284;2023-02-21T08:53:53;17.90;99.90
22235;DHT22;11286;45.596;5.284;2023-02-21T08:56:23;18.50;99.90
22235;DHT22;11286;45.596;5.284;2023-02-21T08:58:49;19.30;99.90
22235;DHT22;11286;45.596;5.284;2023-02-21T09:01:15;19.70;99.90
22235;DHT22;11286;45.596;5.284;2023-02-21T09:03:41;19.90;99.90
22235;DHT22;11286;45.596;5.284;2023-02-21T09:06:07;20.10;99.90
22235;DHT22;11286;45.596;5.284;2023-02-21T09:08:33;20.40;99.90
22235;DHT22;11286;45.596;5.284;2023-02-21T09:11:01;20.70;99.90
22235;DHT22;11286;45.596;5.284;2023-02-21T09:13:28;20.80;99.90
22235;DHT22;11286;45.596;5.284;2023-02-21T09:15:55;20.70;99.90
22235;DHT22;11286;45.596;5.284;2023-02-21T09:18:21;21.30;99.90
22235;DHT22;11286;45.596;5.284;2023-02-21T09:20:47;21.80;99.90
22235;DHT22;11286;45.596;5.284;2023-02-21T09:23:17;22.40;99.90
22235;DHT22;11286;45.596;5.284;2023-02-21T09:25:46;22.50;99.90
22235;DHT22;11286;45.596;5.284;2023-02-21T09:28:13;22.70;99.90
22235;DHT22;11286;45.596;5.284;2023-02-21T09:30:38;22.70;99.90
22235;DHT22;11286;45.596;5.284;2023-02-21T09:33:04;22.80;99.90
22235;DHT22;11286;45.596;5.284;2023-02-21T09:35:29;23.80;99.90
22235;DHT22;11286;45.596;5.284;2023-02-21T09:37:57;23.30;99.90
22235;DHT22;11286;45.596;5.284;2023-02-21T09:42:53;24.10;99.90
22235;DHT22;11286;45.596;5.284;2023-02-21T09:45:20;24.30;99.90
22235;DHT22;11286;45.596;5.284;2023-02-21T09:47:53;23.90;99.90
22235;DHT22;11286;45.596;5.284;2023-02-21T09:50:24;24.40;99.90
22235;DHT22;11286;45.596;5.284;2023-02-21T09:52:55;24.40;99.90
22235;DHT22;11286;45.596;5.284;2023-02-21T09:55:35;23.80;99.90
22235;DHT22;11286;45.596;5.284;2023-02-21T09:58:01;23.90;99.90
22235;DHT22;11286;45.596;5.284;2023-02-21T10:00:35;23.60;99.90
22235;DHT22;11286;45.596;5.284;2023-02-21T10:03:25;24.40;99.90
22235;DHT22;11286;45.596;5.284;2023-02-21T10:08:53;24.30;99.90
22235;DHT22;11286;45.596;5.284;2023-02-21T10:17:37;24.60;99.90
22235;DHT22;11286;45.596;5.284;2023-02-21T10:20:15;25.30;99.90
22235;DHT22;11286;45.596;5.284;2023-02-21T10:22:45;25.50;99.90
22235;DHT22;11286;45.596;5.284;2023-02-21T10:25:28;25.70;99.90
22235;DHT22;11286;45.596;5.284;2023-02-21T10:27:56;25.50;99.90
22235;DHT22;11286;45.596;5.284;2023-02-21T10:30:35;25.20;99.90
22235;DHT22;11286;45.596;5.284;2023-02-21T10:33:02;25.80;99.90
22235;DHT22;11286;45.596;5.284;2023-02-21T10:35:31;25.10;99.90
22235;DHT22;11286;45.596;5.284;2023-02-21T10:37:59;25.70;99.90
22235;DHT22;11286;45.596;5.284;2023-02-21T10:43:11;26.80;99.90
22235;DHT22;11286;45.596;5.284;2023-02-21T10:48:19;26.80;99.90
22235;DHT22;11286;45.596;5.284;2023-02-21T10:53:30;25.20;99.90
22235;DHT22;11286;45.596;5.284;2023-02-21T10:56:23;24.70;99.90
22235;DHT22;11286;45.596;5.284;2023-02-21T10:58:59;25.20;99.90
22235;DHT22;11286;45.596;5.284;2023-02-21T11:03:57;26.60;99.90
22235;DHT22;11286;45.596;5.284;2023-02-21T11:08:55;28.50;99.90
22235;DHT22;11286;45.596;5.284;2023-02-21T11:11:32;28.50;99.90
22235;DHT22;11286;45.596;5.284;2023-02-21T11:16:42;28.10;99.90
22235;DHT22;11286;45.596;5.284;2023-02-21T11:19:12;28.50;99.90
22235;DHT22;11286;45.596;5.284;2023-02-21T11:21:38;28.30;99.90
22235;DHT22;11286;45.596;5.284;2023-02-21T11:24:06;29.00;99.90
22235;DHT22;11286;45.596;5.284;2023-02-21T11:26:52;28.90;99.90
22235;DHT22;11286;45.596;5.284;2023-02-21T11:29:23;28.10;99.90
22235;DHT22;11286;45.596;5.284;2023-02-21T11:31:52;28.10;99.90
22235;DHT22;11286;45.596;5.284;2023-02-21T11:34:18;27.80;99.90
22235;DHT22;11286;45.596;5.284;2023-02-21T11:36:46;28.30;99.90
22235;DHT22;11286;45.596;5.284;2023-02-21T11:39:17;28.00;99.90
22235;DHT22;11286;45.596;5.284;2023-02-21T11:41:51;27.90;99.90
22235;DHT22;11286;45.596;5.284;2023-02-21T11:44:37;28.80;99.90
22235;DHT22;11286;45.596;5.284;2023-02-21T11:47:15;28.20;99.90
22235;DHT22;11286;45.596;5.284;2023-02-21T11:50:09;28.00;99.90
22235;DHT22;11286;45.596;5.284;2023-02-21T11:55:40;28.30;99.90
22235;DHT22;11286;45.596;5.284;2023-02-21T11:58:25;28.10;99.90
22235;DHT22;11286;45.596;5.284;2023-02-21T12:08:50;28.60;99.90
22235;DHT22;11286;45.596;5.284;2023-02-21T12:11:33;27.50;99.90
22235;DHT22;11286;45.596;5.284;2023-02-21T12:20:06;27.30;99.90
22235;DHT22;11286;45.596;5.284;2023-02-21T12:47:54;28.10;99.90
22235;DHT22;11286;45.596;5.284;2023-02-21T12:50:15;28.30;99.90
22235;DHT22;11286;45.596;5.284;2023-02-21T12:55:31;27.70;99.90
22235;DHT22;11286;45.596;5.284;2023-02-21T12:58:29;26.70;99.90
22235;DHT22;11286;45.596;5.284;2023-02-21T13:01:01;26.10;99.90
22235;DHT22;11286;45.596;5.284;2023-02-21T13:10:15;26.10;99.90
22235;DHT22;11286;45.596;5.284;2023-02-21T13:13:01;25.40;99.90
22235;DHT22;11286;45.596;5.284;2023-02-21T13:15:30;25.60;99.90
22235;DHT22;11286;45.596;5.284;2023-02-21T13:18:16;26.70;99.90
22235;DHT22;11286;45.596;5.284;2023-02-21T13:20:52;26.70;99.90
22235;DHT22;11286;45.596;5.284;2023-02-21T13:28:56;25.80;99.90
22235;DHT22;11286;45.596;5.284;2023-02-21T13:31:33;26.60;99.90
22235;DHT22;11286;45.596;5.284;2023-02-21T13:34:06;25.30;99.90
22235;DHT22;11286;45.596;5.284;2023-02-21T13:42:08;24.20;99.90
22235;DHT22;11286;45.596;5.284;2023-02-21T13:44:40;24.90;99.90
22235;DHT22;11286;45.596;5.284;2023-02-21T13:47:18;24.40;99.90
22235;DHT22;11286;45.596;5.284;2023-02-21T13:49:53;23.60;99.90
22235;DHT22;11286;45.596;5.284;2023-02-21T14:13:41;23.20;99.90
22235;DHT22;11286;45.596;5.284;2023-02-21T14:24:00;21.90;99.90
22235;DHT22;11286;45.596;5.284;2023-02-21T14:31:49;21.70;99.90
22235;DHT22;11286;45.596;5.284;2023-02-21T14:56:59;20.30;99.90
22235;DHT22;11286;45.596;5.284;2023-02-21T15:07:53;19.60;99.90
22235;DHT22;11286;45.596;5.284;2023-02-21T15:10:21;19.80;99.90
22235;DHT22;11286;45.596;5.284;2023-02-21T15:12:51;19.70;99.90
22235;DHT22;11286;45.596;5.284;2023-02-21T15:15:38;19.90;99.90
22235;DHT22;11286;45.596;5.284;2023-02-21T15:18:09;20.40;99.90
22235;DHT22;11286;45.596;5.284;2023-02-21T15:20:39;20.00;99.90
22235;DHT22;11286;45.596;5.284;2023-02-21T15:25:34;20.50;99.90
22235;DHT22;11286;45.596;5.284;2023-02-21T15:28:02;20.30;99.90
22235;DHT22;11286;45.596;5.284;2023-02-21T15:30:39;20.40;99.90
22235;DHT22;11286;45.596;5.284;2023-02-21T15:33:17;20.60;99.90
22235;DHT22;11286;45.596;5.284;2023-02-21T15:35:54;20.40;99.90
22235;DHT22;11286;45.596;5.284;2023-02-21T15:38:37;20.20;99.90
22235;DHT22;11286;45.596;5.284;2023-02-21T15:41:23;20.30;99.90
22235;DHT22;11286;45.596;5.284;2023-02-21T15:46:24;20.60;99.90
22235;DHT22;11286;45.596;5.284;2023-02-21T15:48:52;20.70;99.90
22235;DHT22;11286;45.596;5.284;2023-02-21T15:51:20;20.50;99.90
22235;DHT22;11286;45.596;5.284;2023-02-21T15:59:35;20.10;99.90
22235;DHT22;11286;45.596;5.284;2023-02-21T16:04:37;20.20;99.90
22235;DHT22;11286;45.596;5.284;2023-02-21T16:07:05;19.90;99.90
22235;DHT22;11286;45.596;5.284;2023-02-21T16:09:33;19.80;99.90
22235;DHT22;11286;45.596;5.284;2023-02-21T16:14:58;19.40;99.90
22235;DHT22;11286;45.596;5.284;2023-02-21T16:17:33;19.40;99.90
22235;DHT22;11286;45.596;5.284;2023-02-21T16:23:22;19.40;99.90
22235;DHT22;11286;45.596;5.284;2023-02-21T16:28:38;19.20;99.90
22235;DHT22;11286;45.596;5.284;2023-02-21T16:31:07;19.00;99.90
22235;DHT22;11286;45.596;5.284;2023-02-21T16:33:33;18.70;99.90
22235;DHT22;11286;45.596;5.284;2023-02-21T16:36:04;18.30;99.90
22235;DHT22;11286;45.596;5.284;2023-02-21T16:38:30;18.10;99.90
22235;DHT22;11286;45.596;5.284;2023-02-21T16:40:55;17.80;99.90
22235;DHT22;11286;45.596;5.284;2023-02-21T16:43:26;17.70;99.90
22235;DHT22;11286;45.596;5.284;2023-02-21T16:45:54;17.50;99.90
22235;DHT22;11286;45.596;5.284;2023-02-21T16:48:23;17.50;99.90
22235;DHT22;11286;45.596;5.284;2023-02-21T16:50:51;17.30;99.90
22235;DHT22;11286;45.596;5.284;2023-02-21T16:53:18;17.00;99.90
22235;DHT22;11286;45.596;5.284;2023-02-21T16:55:44;16.80;99.90
22235;DHT22;11286;45.596;5.284;2023-02-21T16:58:28;16.70;99.90
22235;DHT22;11286;45.596;5.284;2023-02-21T17:00:56;16.70;99.90
22235;DHT22;11286;45.596;5.284;2023-02-21T17:03:23;16.70;99.90
22235;DHT22;11286;45.596;5.284;2023-02-21T17:05:53;16.70;99.90
22235;DHT22;11286;45.596;5.284;2023-02-21T17:08:19;16.70;99.90
22235;DHT22;11286;45.596;5.284;2023-02-21T17:10:45;16.60;99.90
22235;DHT22;11286;45.596;5.284;2023-02-21T17:13:10;16.50;99.90
22235;DHT22;11286;45.596;5.284;2023-02-21T17:15:36;16.20;99.90
22235;DHT22;11286;45.596;5.284;2023-02-21T17:18:02;16.40;99.90
22235;DHT22;11286;45.596;5.284;2023-02-21T17:20:28;16.20;99.90
22235;DHT22;11286;45.596;5.284;2023-02-21T17:22:54;15.90;99.90
22235;DHT22;11286;45.596;5.284;2023-02-21T17:25:22;15.70;99.90
22235;DHT22;11286;45.596;5.284;2023-02-21T17:27:49;15.60;99.90
22235;DHT22;11286;45.596;5.284;2023-02-21T17:30:15;15.50;99.90
22235;DHT22;11286;45.596;5.284;2023-02-21T17:32:42;15.50;99.90
22235;DHT22;11286;45.596;5.284;2023-02-21T17:35:09;15.50;99.90
22235;DHT22;11286;45.596;5.284;2023-02-21T17:37:34;15.20;99.90
22235;DHT22;11286;45.596;5.284;2023-02-21T17:40:00;15.00;99.90
22235;DHT22;11286;45.596;5.284;2023-02-21T17:42:26;14.80;99.90
22235;DHT22;11286;45.596;5.284;2023-02-21T17:44:51;14.70;99.90
22235;DHT22;11286;45.596;5.284;2023-02-21T17:47:21;14.50;99.90
22235;DHT22;11286;45.596;5.284;2023-02-21T17:49:48;14.50;99.90
22235;DHT22;11286;45.596;5.284;2023-02-21T17:52:14;14.50;99.90
22235;DHT22;11286;45.596;5.284;2023-02-21T17:54:40;14.30;99.90
22235;DHT22;11286;45.596;5.284;2023-02-21T17:57:07;14.30;99.90
22235;DHT22;11286;45.596;5.284;2023-02-21T17:59:36;14.40;99.90
22235;DHT22;11286;45.596;5.284;2023-02-21T18:02:02;14.40;99.90
22235;DHT22;11286;45.596;5.284;2023-02-21T18:04:28;14.30;99.90
22235;DHT22;11286;45.596;5.284;2023-02-21T18:06:54;14.30;99.90
22235;DHT22;11286;45.596;5.284;2023-02-21T18:09:20;14.20;99.90
22235;DHT22;11286;45.596;5.284;2023-02-21T18:11:50;14.20;99.90
22235;DHT22;11286;45.596;5.284;2023-02-21T18:14:16;14.20;99.90
22235;DHT22;11286;45.596;5.284;2023-02-21T18:16:42;14.20;99.90
22235;DHT22;11286;45.596;5.284;2023-02-21T18:19:08;14.20;99.90
22235;DHT22;11286;45.596;5.284;2023-02-21T18:21:34;14.10;99.90
22235;DHT22;11286;45.596;5.284;2023-02-21T18:24:01;14.00;99.90
22235;DHT22;11286;45.596;5.284;2023-02-21T18:26:26;14.00;99.90
22235;DHT22;11286;45.596;5.284;2023-02-21T18:28:52;14.00;99.90
22235;DHT22;11286;45.596;5.284;2023-02-21T18:31:18;13.90;99.90
22235;DHT22;11286;45.596;5.284;2023-02-21T18:33:44;13.90;99.90
22235;DHT22;11286;45.596;5.284;2023-02-21T18:36:10;13.80;99.90
22235;DHT22;11286;45.596;5.284;2023-02-21T18:38:40;13.70;99.90
22235;DHT22;11286;45.596;5.284;2023-02-21T18:41:13;13.60;99.90
22235;DHT22;11286;45.596;5.284;2023-02-21T18:43:40;13.60;99.90
22235;DHT22;11286;45.596;5.284;2023-02-21T18:46:12;13.50;99.90
22235;DHT22;11286;45.596;5.284;2023-02-21T18:48:41;13.40;99.90
22235;DHT22;11286;45.596;5.284;2023-02-21T18:51:09;13.50;99.90
22235;DHT22;11286;45.596;5.284;2023-02-21T18:53:35;13.50;99.90
22235;DHT22;11286;45.596;5.284;2023-02-21T18:56:01;13.50;99.90
22235;DHT22;11286;45.596;5.284;2023-02-21T18:58:26;13.50;99.90
22235;DHT22;11286;45.596;5.284;2023-02-21T19:00:52;13.60;99.90
22235;DHT22;11286;45.596;5.284;2023-02-21T19:03:18;13.40;99.90
22235;DHT22;11286;45.596;5.284;2023-02-21T19:05:44;13.30;99.90
22235;DHT22;11286;45.596;5.284;2023-02-21T19:08:09;13.30;99.90
22235;DHT22;11286;45.596;5.284;2023-02-21T19:13:23;13.20;99.90
22235;DHT22;11286;45.596;5.284;2023-02-21T19:18:26;13.10;99.90
22235;DHT22;11286;45.596;5.284;2023-02-21T19:23:30;13.10;99.90
22235;DHT22;11286;45.596;5.284;2023-02-21T19:25:55;13.10;99.90
22235;DHT22;11286;45.596;5.284;2023-02-21T19:28:21;13.00;99.90
22235;DHT22;11286;45.596;5.284;2023-02-21T19:30:48;13.00;99.90
22235;DHT22;11286;45.596;5.284;2023-02-21T19:33:14;12.90;99.90
22235;DHT22;11286;45.596;5.284;2023-02-21T19:35:40;13.00;99.90
22235;DHT22;11286;45.596;5.284;2023-02-21T19:38:08;12.80;99.90
22235;DHT22;11286;45.596;5.284;2023-02-21T19:40:34;12.80;99.90
22235;DHT22;11286;45.596;5.284;2023-02-21T19:43:00;12.60;99.90
22235;DHT22;11286;45.596;5.284;2023-02-21T19:45:26;12.60;99.90
22235;DHT22;11286;45.596;5.284;2023-02-21T19:47:52;12.60;99.90
22235;DHT22;11286;45.596;5.284;2023-02-21T19:50:18;12.50;99.90
22235;DHT22;11286;45.596;5.284;2023-02-21T19:52:44;12.40;99.90
22235;DHT22;11286;45.596;5.284;2023-02-21T19:55:15;12.30;99.90
22235;DHT22;11286;45.596;5.284;2023-02-21T19:57:41;12.20;99.90
22235;DHT22;11286;45.596;5.284;2023-02-21T20:00:07;12.40;99.90
22235;DHT22;11286;45.596;5.284;2023-02-21T20:02:35;12.40;99.90
22235;DHT22;11286;45.596;5.284;2023-02-21T20:05:01;12.30;99.90
22235;DHT22;11286;45.596;5.284;2023-02-21T20:07:26;12.40;99.90
22235;DHT22;11286;45.596;5.284;2023-02-21T20:09:52;12.30;99.90
22235;DHT22;11286;45.596;5.284;2023-02-21T20:12:17;12.30;99.90
22235;DHT22;11286;45.596;5.284;2023-02-21T20:14:48;12.30;99.90
22235;DHT22;11286;45.596;5.284;2023-02-21T20:17:14;12.30;99.90
22235;DHT22;11286;45.596;5.284;2023-02-21T20:19:40;12.30;99.90
22235;DHT22;11286;45.596;5.284;2023-02-21T20:22:06;12.30;99.90
22235;DHT22;11286;45.596;5.284;2023-02-21T20:24:31;12.30;99.90
22235;DHT22;11286;45.596;5.284;2023-02-21T20:26:57;12.30;99.90
22235;DHT22;11286;45.596;5.284;2023-02-21T20:29:22;12.20;99.90
22235;DHT22;11286;45.596;5.284;2023-02-21T20:31:49;12.30;99.90
22235;DHT22;11286;45.596;5.284;2023-02-21T20:34:15;12.30;99.90
22235;DHT22;11286;45.596;5.284;2023-02-21T20:36:42;12.30;99.90
22235;DHT22;11286;45.596;5.284;2023-02-21T20:39:20;12.20;99.90
22235;DHT22;11286;45.596;5.284;2023-02-21T20:41:47;12.20;99.90
22235;DHT22;11286;45.596;5.284;2023-02-21T20:44:13;12.10;99.90
22235;DHT22;11286;45.596;5.284;2023-02-21T20:46:39;12.10;99.90
22235;DHT22;11286;45.596;5.284;2023-02-21T20:49:05;12.00;99.90
22235;DHT22;11286;45.596;5.284;2023-02-21T20:51:33;11.90;99.90
22235;DHT22;11286;45.596;5.284;2023-02-21T20:54:00;11.90;99.90
22235;DHT22;11286;45.596;5.284;2023-02-21T20:56:37;11.80;99.90
22235;DHT22;11286;45.596;5.284;2023-02-21T20:59:05;11.70;99.90
22235;DHT22;11286;45.596;5.284;2023-02-21T21:01:32;11.80;99.90
22235;DHT22;11286;45.596;5.284;2023-02-21T21:04:00;11.70;99.90
22235;DHT22;11286;45.596;5.284;2023-02-21T21:06:27;11.80;99.90
22235;DHT22;11286;45.596;5.284;2023-02-21T21:08:52;11.70;99.90
22235;DHT22;11286;45.596;5.284;2023-02-21T21:11:19;11.70;99.90
22235;DHT22;11286;45.596;5.284;2023-02-21T21:13:46;11.70;99.90
22235;DHT22;11286;45.596;5.284;2023-02-21T21:16:14;11.70;99.90
22235;DHT22;11286;45.596;5.284;2023-02-21T21:18:41;11.70;99.90
22235;DHT22;11286;45.596;5.284;2023-02-21T21:21:07;11.60;99.90
22235;DHT22;11286;45.596;5.284;2023-02-21T21:23:32;11.60;99.90
22235;DHT22;11286;45.596;5.284;2023-02-21T21:25:58;11.70;99.90
22235;DHT22;11286;45.596;5.284;2023-02-21T21:28:27;11.80;99.90
22235;DHT22;11286;45.596;5.284;2023-02-21T21:30:57;11.70;99.90
22235;DHT22;11286;45.596;5.284;2023-02-21T21:33:24;11.70;99.90
22235;DHT22;11286;45.596;5.284;2023-02-21T21:35:50;11.70;99.90
22235;DHT22;11286;45.596;5.284;2023-02-21T21:38:17;11.70;99.90
22235;DHT22;11286;45.596;5.284;2023-02-21T21:40:46;11.70;99.90
22235;DHT22;11286;45.596;5.284;2023-02-21T21:43:12;11.70;99.90
22235;DHT22;11286;45.596;5.284;2023-02-21T21:45:39;11.60;99.90
22235;DHT22;11286;45.596;5.284;2023-02-21T21:48:09;11.60;99.90
22235;DHT22;11286;45.596;5.284;2023-02-21T21:50:34;11.70;99.90
22235;DHT22;11286;45.596;5.284;2023-02-21T21:53:00;11.80;99.90
22235;DHT22;11286;45.596;5.284;2023-02-21T21:55:28;11.80;99.90
22235;DHT22;11286;45.596;5.284;2023-02-21T21:57:55;11.70;99.90
22235;DHT22;11286;45.596;5.284;2023-02-21T22:00:27;11.70;99.90
22235;DHT22;11286;45.596;5.284;2023-02-21T22:02:56;11.60;99.90
22235;DHT22;11286;45.596;5.284;2023-02-21T22:05:26;11.60;99.90
22235;DHT22;11286;45.596;5.284;2023-02-21T22:07:53;11.60;99.90
22235;DHT22;11286;45.596;5.284;2023-02-21T22:10:20;11.60;99.90
22235;DHT22;11286;45.596;5.284;2023-02-21T22:12:50;11.70;99.90
22235;DHT22;11286;45.596;5.284;2023-02-21T22:15:21;11.70;99.90
22235;DHT22;11286;45.596;5.284;2023-02-21T22:17:47;11.70;99.90
22235;DHT22;11286;45.596;5.284;2023-02-21T22:20:16;11.60;99.90
22235;DHT22;11286;45.596;5.284;2023-02-21T22:22:51;11.60;99.90
22235;DHT22;11286;45.596;5.284;2023-02-21T22:25:21;11.60;99.90
22235;DHT22;11286;45.596;5.284;2023-02-21T22:27:47;11.70;99.90
22235;DHT22;11286;45.596;5.284;2023-02-21T22:30:18;11.70;99.90
22235;DHT22;11286;45.596;5.284;2023-02-21T22:32:45;11.60;99.90
22235;DHT22;11286;45.596;5.284;2023-02-21T22:35:13;11.60;99.90
22235;DHT22;11286;45.596;5.284;2023-02-21T22:37:52;11.60;99.90
22235;DHT22;11286;45.596;5.284;2023-02-21T22:40:24;11.60;99.90
22235;DHT22;11286;45.596;5.284;2023-02-21T22:42:56;11.60;99.90
22235;DHT22;11286;45.596;5.284;2023-02-21T22:45:22;11.50;99.90